OGG Airport (Kahului) Information

FAA: OGG - ICAO: PHOG

OGG Airport Location

State Hawaii
County Maui
City Kahului
OGG Airport is 3 miles east of Kahului, HI.
Latitude 20-53-55.1510N
Longitude 156-25-49.6360W
Elevation 53ft

PHOG Airport METARs

METAR PHOG 200254Z 04014KT 10SM FEW040 27/18 A3003 RMK AO2 SLP172 T02670178 55000
Altimeter 30.03"
Temperature 26.7°C (80.1°F)
Wind 40° at 14KT
Clouds few at 4,000ft
Visibility 10.0mi
Time observed: 2021-10-20T02:54:00Z

OGG Airport Details

Status Operational
Activation October 1946
Ownership Public
Usage Public
Chart HAWAIIAN ISLANDS
ATC on-site Yes
Beacon schedule sunset-sunrise
Beacon color clear green

OGG Airport Contacts

Owner HAWAII STATE AIRPORTS DIV
Owner address HONOLULU INTL ARPT, HONOLULU, HI 96819
Owner phone 808-838-8600
Manager RUFUS CROWE
Manager address 7688 SVRB, SAIPAN, MP 96950
Manager phone 670-234-1304

OGG Airport (Kahului) Radio Frequencies

OGG (Airport) Radio Frequencies

UNICOM 122.95
Common traffic advisory frequency (CTAF) 118.7